createdAt,value
2022-10-24T00:01:37.106Z,19.65
2022-10-24T00:04:08.415Z,18.90
2022-10-24T00:06:36.248Z,19.25
2022-10-24T00:09:04.568Z,15.73
2022-10-24T00:11:33.032Z,23.85
2022-10-24T00:14:01.327Z,20.67
2022-10-24T00:16:29.437Z,20.08
2022-10-24T00:18:57.719Z,22.35
2022-10-24T00:21:25.481Z,20.60
2022-10-24T00:23:56.135Z,18.05
2022-10-24T00:26:24.383Z,18.75
2022-10-24T00:28:52.353Z,21.45
2022-10-24T00:31:23.654Z,24.55
2022-10-24T00:33:51.962Z,21.37
2022-10-24T00:36:24.002Z,22.33
2022-10-24T00:38:52.746Z,21.40
2022-10-24T00:41:35.155Z,19.27
2022-10-24T00:44:34.919Z,19.70
2022-10-24T00:47:09.789Z,20.75
2022-10-24T00:49:47.431Z,22.35
2022-10-24T00:52:18.694Z,16.52
2022-10-24T00:54:47.734Z,19.92
2022-10-24T00:57:15.323Z,19.27
2022-10-24T00:59:46.656Z,17.65
2022-10-24T01:04:50.612Z,15.50
2022-10-24T01:07:47.711Z,22.70
2022-10-24T01:13:32.782Z,16.80
2022-10-24T01:16:12.652Z,16.77
2022-10-24T01:19:02.977Z,16.00
2022-10-24T01:22:09.058Z,17.30
2022-10-24T01:25:04.131Z,17.87
2022-10-24T01:27:56.363Z,18.00
2022-10-24T01:30:26.006Z,15.40
2022-10-24T01:33:06.488Z,16.48
2022-10-24T01:36:15.421Z,19.50
2022-10-24T01:38:55.270Z,20.67
2022-10-24T01:41:27.328Z,16.62
2022-10-24T01:44:05.488Z,16.20
2022-10-24T01:46:41.219Z,14.15
2022-10-24T01:49:16.960Z,14.45
2022-10-24T01:51:49.288Z,16.90
2022-10-24T01:54:20.943Z,17.58
2022-10-24T01:56:49.615Z,19.27
2022-10-24T01:59:28.476Z,17.95
2022-10-24T02:02:09.163Z,20.00
2022-10-24T02:04:55.406Z,14.43
2022-10-24T02:07:25.917Z,16.65
2022-10-24T02:10:01.058Z,14.82
2022-10-24T02:12:38.209Z,14.40
2022-10-24T02:15:29.811Z,16.35
2022-10-24T02:17:58.415Z,17.90
2022-10-24T02:20:39.682Z,15.18
2022-10-24T02:23:26.607Z,16.08
2022-10-24T02:26:00.393Z,16.35
2022-10-24T02:28:35.610Z,15.27
2022-10-24T02:31:31.306Z,13.55
2022-10-24T02:34:01.969Z,14.65
2022-10-24T02:36:32.906Z,14.55
2022-10-24T02:39:03.458Z,14.55
2022-10-24T02:41:35.850Z,16.65
2022-10-24T02:44:06.399Z,13.65
2022-10-24T02:46:35.323Z,13.62
2022-10-24T02:49:04.248Z,12.90
2022-10-24T02:51:40.556Z,14.70
2022-10-24T02:54:08.264Z,14.38
2022-10-24T02:56:45.245Z,14.70
2022-10-24T02:59:12.965Z,12.93
2022-10-24T03:01:41.596Z,11.60
2022-10-24T03:04:09.587Z,13.00
2022-10-24T03:06:37.511Z,12.40
2022-10-24T03:09:08.703Z,13.55
2022-10-24T03:11:36.813Z,14.30
2022-10-24T03:14:04.963Z,15.68
2022-10-24T03:16:33.569Z,15.70
2022-10-24T03:19:01.580Z,13.38
2022-10-24T03:21:29.621Z,11.57
2022-10-24T03:23:58.080Z,16.15
2022-10-24T03:26:26.107Z,13.73
2022-10-24T03:28:56.931Z,11.57
2022-10-24T03:31:25.250Z,14.05
2022-10-24T03:33:53.176Z,12.52
2022-10-24T03:36:21.145Z,15.10
2022-10-24T03:38:49.437Z,13.10
2022-10-24T03:41:17.352Z,15.27
2022-10-24T03:43:45.280Z,16.85
2022-10-24T03:46:13.739Z,14.82
2022-10-24T03:48:41.713Z,14.90
2022-10-24T03:51:09.812Z,14.18
2022-10-24T03:53:38.037Z,14.63
2022-10-24T03:56:08.892Z,13.48
2022-10-24T03:58:36.714Z,14.93
2022-10-24T04:01:05.596Z,11.38
2022-10-24T04:03:33.805Z,16.05
2022-10-24T04:06:01.639Z,15.30
2022-10-24T04:08:32.401Z,16.52
2022-10-24T04:11:00.647Z,13.13
2022-10-24T04:13:29.518Z,14.87
2022-10-24T04:15:57.543Z,14.80
2022-10-24T04:18:25.968Z,18.67
2022-10-24T04:20:53.944Z,14.40
2022-10-24T04:23:21.640Z,19.00
2022-10-24T04:25:50.475Z,18.30
2022-10-24T04:28:18.463Z,14.43
2022-10-24T04:30:56.008Z,15.65
2022-10-24T04:33:24.838Z,17.25
2022-10-24T04:35:53.011Z,15.60
2022-10-24T04:38:21.765Z,16.48
2022-10-24T04:40:53.117Z,16.75
2022-10-24T04:43:23.037Z,18.58
2022-10-24T04:45:52.819Z,19.33
2022-10-24T04:48:21.876Z,20.58
2022-10-24T04:50:49.722Z,20.33
2022-10-24T04:53:17.787Z,19.42
2022-10-24T04:55:46.055Z,24.65
2022-10-24T04:58:19.440Z,23.38
2022-10-24T05:00:51.413Z,25.70
2022-10-24T05:03:20.871Z,29.30
2022-10-24T05:05:52.332Z,20.02
2022-10-24T05:08:21.932Z,24.23
2022-10-24T05:10:51.616Z,26.02
2022-10-24T05:13:21.565Z,22.05
2022-10-24T05:15:50.143Z,24.95
2022-10-24T05:18:19.813Z,26.75
2022-10-24T05:20:52.098Z,23.80
2022-10-24T05:25:57.597Z,26.30
2022-10-24T05:28:27.571Z,22.87
2022-10-24T05:30:58.693Z,23.30
2022-10-24T05:33:28.318Z,20.20
2022-10-24T05:35:59.958Z,21.02
2022-10-24T05:38:31.503Z,23.92
2022-10-24T05:41:03.994Z,22.90
2022-10-24T05:43:36.729Z,22.00
2022-10-24T05:46:04.867Z,20.77
2022-10-24T05:48:34.258Z,25.33
2022-10-24T05:51:07.791Z,26.93
2022-10-24T05:53:40.816Z,23.23
2022-10-24T05:56:10.371Z,24.95
2022-10-24T05:58:42.999Z,20.12
2022-10-24T06:01:18.035Z,21.40
2022-10-24T06:03:51.117Z,21.02
2022-10-24T06:06:21.303Z,22.23
2022-10-24T06:08:54.894Z,29.65
2022-10-24T06:11:26.772Z,23.67
2022-10-24T06:13:59.571Z,27.90
2022-10-24T06:16:31.093Z,23.23
2022-10-24T06:19:05.596Z,26.27
2022-10-24T06:21:37.835Z,21.17
2022-10-24T06:24:10.758Z,20.02
2022-10-24T06:26:40.654Z,20.93
2022-10-24T06:29:15.957Z,21.20
2022-10-24T06:31:46.609Z,20.45
2022-10-24T06:36:52.026Z,19.70
2022-10-24T06:39:21.502Z,18.12
2022-10-24T06:41:51.072Z,19.83
2022-10-24T06:44:24.064Z,16.30
2022-10-24T06:46:54.286Z,19.70
2022-10-24T06:49:24.071Z,16.48
2022-10-24T06:51:57.062Z,20.67
2022-10-24T06:54:35.426Z,12.60
2022-10-24T06:57:07.453Z,15.02
2022-10-24T06:59:39.229Z,14.93
2022-10-24T07:04:44.718Z,12.63
2022-10-24T07:07:18.944Z,13.02
2022-10-24T07:10:00.984Z,12.80
2022-10-24T07:12:38.684Z,12.93
2022-10-24T07:15:08.758Z,13.30
2022-10-24T07:17:48.511Z,15.90
2022-10-24T07:20:26.928Z,14.20
2022-10-24T07:23:00.813Z,12.52
2022-10-24T07:25:43.808Z,13.27
2022-10-24T07:28:15.124Z,13.45
2022-10-24T07:30:48.879Z,13.35
2022-10-24T07:33:24.974Z,12.60
2022-10-24T07:36:04.276Z,12.15
2022-10-24T07:38:43.658Z,14.90
2022-10-24T07:41:25.463Z,14.85
2022-10-24T07:44:03.542Z,9.75
2022-10-24T07:46:40.798Z,6.82
2022-10-24T07:49:21.191Z,10.45
2022-10-24T07:52:04.711Z,10.10
2022-10-24T07:54:45.129Z,10.20
2022-10-24T07:57:18.198Z,7.22
2022-10-24T07:59:54.357Z,9.55
2022-10-24T08:02:33.004Z,9.38
2022-10-24T08:05:11.567Z,11.12
2022-10-24T08:07:56.272Z,12.93
2022-10-24T08:10:36.321Z,11.60
2022-10-24T08:13:15.304Z,6.87
2022-10-24T08:15:50.559Z,8.52
2022-10-24T08:18:23.021Z,7.90
2022-10-24T08:21:06.020Z,7.20
2022-10-24T08:23:43.428Z,8.43
2022-10-24T08:26:25.882Z,7.62
2022-10-24T08:28:58.137Z,7.68
2022-10-24T08:31:33.439Z,7.18
2022-10-24T08:34:07.300Z,5.35
2022-10-24T08:36:43.984Z,7.57
2022-10-24T08:39:13.796Z,7.90
2022-10-24T08:42:10.296Z,5.55
2022-10-24T08:44:51.583Z,5.70
2022-10-24T08:50:21.796Z,7.12
2022-10-24T08:53:07.715Z,6.43
2022-10-24T08:55:51.269Z,7.43
2022-10-24T08:58:29.622Z,8.32
2022-10-24T09:01:08.969Z,8.10
2022-10-24T09:04:02.088Z,5.40
2022-10-24T09:06:38.059Z,5.05
2022-10-24T09:09:28.070Z,4.95
2022-10-24T09:12:15.131Z,5.95
2022-10-24T09:15:02.354Z,4.95
2022-10-24T09:17:37.415Z,4.22
2022-10-24T09:20:29.999Z,3.90
2022-10-24T09:23:07.012Z,5.43
2022-10-24T09:25:44.781Z,4.43
2022-10-24T09:28:23.200Z,4.62
2022-10-24T09:31:07.431Z,5.32
2022-10-24T09:33:52.282Z,3.83
2022-10-24T09:36:22.268Z,5.05
2022-10-24T09:38:53.232Z,3.90
2022-10-24T09:41:29.802Z,4.87
2022-10-24T09:44:08.928Z,5.78
2022-10-24T09:46:48.366Z,3.60
2022-10-24T09:49:26.532Z,4.80
2022-10-24T09:52:17.807Z,4.07
2022-10-24T09:55:11.575Z,5.18
2022-10-24T09:57:49.032Z,6.72
2022-10-24T10:00:25.224Z,8.38
2022-10-24T10:03:07.993Z,9.20
2022-10-24T10:06:04.680Z,6.03
2022-10-24T10:08:45.532Z,4.62
2022-10-24T10:11:54.768Z,5.30
2022-10-24T10:14:43.930Z,4.65
2022-10-24T10:17:28.207Z,5.30
2022-10-24T10:20:09.534Z,4.87
2022-10-24T10:22:51.645Z,6.20
2022-10-24T10:25:32.496Z,6.62
2022-10-24T10:28:03.551Z,5.32
2022-10-24T10:30:38.648Z,5.50
2022-10-24T10:34:09.981Z,8.55
2022-10-24T10:36:57.570Z,9.98
2022-10-24T10:40:05.175Z,8.15
2022-10-24T10:42:55.621Z,4.70
2022-10-24T10:45:39.068Z,5.15
2022-10-24T10:48:47.726Z,5.45
2022-10-24T10:51:47.986Z,6.22
2022-10-24T10:54:40.336Z,5.45
2022-10-24T10:57:19.393Z,6.37
2022-10-24T11:00:09.806Z,3.83
2022-10-24T11:02:43.661Z,9.20
2022-10-24T11:05:44.198Z,6.72
2022-10-24T11:08:43.363Z,5.55
2022-10-24T11:11:40.577Z,4.97
2022-10-24T11:14:47.587Z,5.97
2022-10-24T11:17:40.515Z,4.45
2022-10-24T11:20:39.067Z,5.32
2022-10-24T11:23:21.248Z,3.70
2022-10-24T11:26:05.385Z,3.47
2022-10-24T11:29:20.845Z,5.68
2022-10-24T11:32:05.783Z,6.72
2022-10-24T11:34:58.304Z,6.43
2022-10-24T11:37:48.846Z,6.97
2022-10-24T11:40:32.509Z,4.32
2022-10-24T11:43:28.933Z,5.72
2022-10-24T11:46:17.957Z,4.07
2022-10-24T11:48:59.363Z,6.85
2022-10-24T11:51:47.907Z,5.00
2022-10-24T11:54:52.152Z,4.50
2022-10-24T11:57:30.382Z,5.87
2022-10-24T12:00:02.563Z,3.83
2022-10-24T12:03:03.505Z,3.70
2022-10-24T12:06:21.219Z,3.53
2022-10-24T12:09:05.951Z,5.95
2022-10-24T12:12:04.544Z,6.35
2022-10-24T12:15:05.395Z,6.07
2022-10-24T12:17:46.194Z,7.85
2022-10-24T12:20:25.182Z,7.20
2022-10-24T12:23:13.836Z,4.68
2022-10-24T12:25:53.468Z,4.30
2022-10-24T12:28:27.551Z,5.37
2022-10-24T12:31:15.060Z,3.67
2022-10-24T12:34:24.403Z,4.93
2022-10-24T12:37:25.781Z,4.62
2022-10-24T12:39:59.846Z,5.15
2022-10-24T12:42:38.919Z,7.18
2022-10-24T12:45:32.166Z,6.43
2022-10-24T12:48:37.196Z,4.68
2022-10-24T12:51:34.424Z,4.93
2022-10-24T12:54:16.318Z,6.22
2022-10-24T12:56:50.200Z,4.75
2022-10-24T12:59:33.361Z,4.75
2022-10-24T13:02:19.620Z,3.77
2022-10-24T13:05:15.159Z,3.80
2022-10-24T13:08:02.914Z,5.30
2022-10-24T13:11:05.017Z,4.15
2022-10-24T13:13:55.049Z,5.18
2022-10-24T13:17:07.598Z,3.85
2022-10-24T13:19:46.861Z,4.87
2022-10-24T13:22:39.464Z,4.55
2022-10-24T13:25:40.531Z,5.53
2022-10-24T13:28:39.356Z,4.12
2022-10-24T13:31:21.687Z,3.97
2022-10-24T13:36:35.034Z,2.80
2022-10-24T13:39:10.956Z,2.75
2022-10-24T13:41:49.764Z,4.50
2022-10-24T13:44:46.825Z,3.00
2022-10-24T13:47:50.611Z,4.82
2022-10-24T13:50:29.622Z,3.92
2022-10-24T13:53:26.592Z,3.10
2022-10-24T13:56:11.506Z,4.25
2022-10-24T13:58:46.291Z,2.83
2022-10-24T14:01:37.690Z,4.25
2022-10-24T14:04:12.023Z,3.62
2022-10-24T14:06:48.100Z,6.10
2022-10-24T14:09:24.143Z,3.08
2022-10-24T14:12:01.041Z,5.20
2022-10-24T14:14:43.154Z,4.28
2022-10-24T14:17:34.663Z,3.83
2022-10-24T14:20:25.769Z,6.12
2022-10-24T14:23:00.946Z,4.18
2022-10-24T14:25:44.098Z,5.28
2022-10-24T14:28:22.137Z,5.20
2022-10-24T14:31:08.043Z,7.70
2022-10-24T14:33:52.773Z,8.75
2022-10-24T14:39:25.112Z,7.68
2022-10-24T14:41:59.986Z,10.50
2022-10-24T14:44:42.714Z,18.12
2022-10-24T14:47:19.018Z,17.23
2022-10-24T14:49:58.134Z,13.65
2022-10-24T14:52:47.976Z,14.77
2022-10-24T14:55:23.977Z,14.00
2022-10-24T14:57:57.368Z,13.50
2022-10-24T15:00:46.028Z,15.68
2022-10-24T15:03:34.745Z,16.90
2022-10-24T15:06:15.661Z,17.40
2022-10-24T15:09:18.220Z,11.12
2022-10-24T15:12:06.989Z,12.27
2022-10-24T15:14:49.882Z,10.18
2022-10-24T15:17:21.343Z,16.08
2022-10-24T15:19:55.708Z,11.43
2022-10-24T15:22:38.715Z,8.68
2022-10-24T15:25:40.565Z,10.05
2022-10-24T15:28:45.472Z,12.07
2022-10-24T15:31:21.670Z,8.35
2022-10-24T15:33:51.306Z,10.20
2022-10-24T15:36:41.606Z,10.30
2022-10-24T15:39:23.223Z,15.43
2022-10-24T15:42:07.266Z,11.52
2022-10-24T15:44:40.880Z,11.95
2022-10-24T15:47:23.934Z,15.88
2022-10-24T15:50:07.477Z,14.75
2022-10-24T15:52:53.049Z,12.20
2022-10-24T15:55:38.492Z,21.58
2022-10-24T15:58:19.203Z,12.98
2022-10-24T16:01:02.089Z,16.85
2022-10-24T16:03:47.233Z,19.13
2022-10-24T16:06:19.003Z,25.95
2022-10-24T16:08:58.725Z,20.88
2022-10-24T16:11:36.932Z,20.65
2022-10-24T16:14:13.463Z,31.25
2022-10-24T16:16:56.674Z,50.55
2022-10-24T16:19:33.136Z,42.58
2022-10-24T16:22:12.569Z,44.22
2022-10-24T16:24:50.977Z,33.88
2022-10-24T16:27:25.422Z,28.10
2022-10-24T16:30:06.512Z,20.85
2022-10-24T16:32:39.103Z,14.90
2022-10-24T16:35:20.253Z,11.68
2022-10-24T16:37:51.474Z,12.20
2022-10-24T16:40:27.200Z,10.23
2022-10-24T16:43:08.008Z,11.63
2022-10-24T16:45:41.183Z,12.52
2022-10-24T16:48:15.112Z,11.68
2022-10-24T16:50:47.758Z,11.77
2022-10-24T16:53:40.652Z,14.20
2022-10-24T16:56:19.120Z,20.52
2022-10-24T16:59:02.549Z,19.73
2022-10-24T17:01:54.607Z,19.30
2022-10-24T17:04:30.260Z,16.45
2022-10-24T17:07:18.157Z,21.27
2022-10-24T17:09:52.707Z,20.20
2022-10-24T17:12:28.090Z,17.95
2022-10-24T17:15:04.229Z,17.35
2022-10-24T17:17:52.076Z,38.97
2022-10-24T17:20:32.513Z,21.62
2022-10-24T17:23:16.509Z,19.50
2022-10-24T17:25:56.144Z,22.55
2022-10-24T17:28:40.084Z,16.98
2022-10-24T17:31:22.093Z,14.75
2022-10-24T17:33:58.911Z,19.35
2022-10-24T17:36:45.094Z,17.00
2022-10-24T17:39:41.628Z,18.33
2022-10-24T17:42:26.179Z,24.15
2022-10-24T17:45:08.809Z,26.95
2022-10-24T17:47:48.366Z,23.85
2022-10-24T17:50:21.536Z,24.40
2022-10-24T17:55:50.076Z,19.73
2022-10-24T17:58:31.703Z,19.85
2022-10-24T18:01:02.836Z,22.33
2022-10-24T18:03:38.602Z,30.42
2022-10-24T18:06:23.670Z,39.80
2022-10-24T18:09:08.303Z,26.45
2022-10-24T18:11:48.108Z,53.75
2022-10-24T18:14:21.864Z,75.68
2022-10-24T18:16:52.315Z,91.60
2022-10-24T18:19:31.068Z,89.07
2022-10-24T18:22:04.114Z,36.28
2022-10-24T18:24:44.977Z,33.55
2022-10-24T18:27:18.414Z,30.65
2022-10-24T18:29:50.866Z,29.67
2022-10-24T18:32:23.344Z,25.67
2022-10-24T18:35:02.272Z,19.45
2022-10-24T18:37:39.148Z,22.50
2022-10-24T18:40:14.415Z,16.52
2022-10-24T18:43:05.635Z,18.33
2022-10-24T18:45:42.461Z,19.70
2022-10-24T18:48:20.950Z,16.45
2022-10-24T18:50:52.769Z,17.75
2022-10-24T18:53:31.826Z,17.95
2022-10-24T18:56:05.299Z,18.65
2022-10-24T18:58:35.805Z,22.48
2022-10-24T19:01:13.123Z,23.23
2022-10-24T19:03:47.243Z,33.83
2022-10-24T19:06:24.137Z,32.60
2022-10-24T19:08:56.131Z,49.72
2022-10-24T19:11:33.534Z,48.50
2022-10-24T19:14:08.911Z,69.32
2022-10-24T19:16:38.801Z,62.85
2022-10-24T19:19:13.954Z,67.47
2022-10-24T19:21:47.707Z,103.57
2022-10-24T19:24:24.178Z,153.05
2022-10-24T19:26:59.751Z,108.15
2022-10-24T19:29:31.672Z,83.22
2022-10-24T19:32:04.357Z,69.78
2022-10-24T19:34:33.548Z,57.78
2022-10-24T19:37:02.662Z,33.13
2022-10-24T19:39:36.681Z,41.42
2022-10-24T19:42:09.467Z,74.22
2022-10-24T19:49:56.163Z,30.73
2022-10-24T19:52:27.147Z,40.17
2022-10-24T19:54:57.614Z,30.65
2022-10-24T19:57:33.840Z,37.35
2022-10-24T20:00:08.206Z,44.70
2022-10-24T20:02:45.274Z,32.08
2022-10-24T20:05:19.708Z,41.83
2022-10-24T20:07:50.775Z,55.25
2022-10-24T20:10:23.352Z,74.15
2022-10-24T20:12:54.294Z,65.25
2022-10-24T20:15:23.255Z,47.75
2022-10-24T20:17:56.104Z,53.65
2022-10-24T20:20:26.417Z,59.40
2022-10-24T20:22:56.787Z,42.78
2022-10-24T20:25:26.595Z,39.05
2022-10-24T20:27:56.094Z,34.38
2022-10-24T20:30:23.959Z,34.28
2022-10-24T20:32:55.164Z,38.88
2022-10-24T20:35:27.702Z,35.58
2022-10-24T20:37:59.977Z,27.95
2022-10-24T20:40:28.530Z,32.05
2022-10-24T20:42:56.791Z,36.35
2022-10-24T20:45:26.582Z,31.15
2022-10-24T20:47:55.415Z,32.70
2022-10-24T20:50:24.071Z,27.40
2022-10-24T20:52:53.532Z,29.50
2022-10-24T20:55:39.570Z,37.75
2022-10-24T20:58:14.040Z,32.15
2022-10-24T21:03:15.624Z,34.45
2022-10-24T21:05:43.609Z,31.83
2022-10-24T21:08:11.367Z,27.23
2022-10-24T21:10:39.721Z,32.75
2022-10-24T21:13:07.511Z,30.12
2022-10-24T21:15:35.564Z,33.80
2022-10-24T21:18:05.211Z,46.13
2022-10-24T21:20:33.038Z,59.00
2022-10-24T21:23:01.213Z,75.05
2022-10-24T21:25:32.445Z,83.55
2022-10-24T21:28:00.255Z,82.72
2022-10-24T21:30:28.151Z,75.93
2022-10-24T21:32:56.585Z,53.45
2022-10-24T21:35:24.462Z,64.28
2022-10-24T21:37:52.281Z,78.78
2022-10-24T21:40:20.642Z,74.90
2022-10-24T21:42:48.792Z,65.85
2022-10-24T21:45:16.948Z,63.35
2022-10-24T21:47:45.381Z,68.53
2022-10-24T21:50:13.199Z,65.65
2022-10-24T21:52:41.066Z,89.50
2022-10-24T21:55:09.609Z,64.53
2022-10-24T21:57:40.565Z,53.70
2022-10-24T22:00:09.097Z,53.70
2022-10-24T22:02:36.776Z,56.45
2022-10-24T22:05:08.064Z,49.38
2022-10-24T22:07:43.936Z,57.75
2022-10-24T22:10:14.679Z,51.60
2022-10-24T22:12:42.757Z,52.50
2022-10-24T22:15:11.171Z,44.85
2022-10-24T22:17:39.274Z,45.67
2022-10-24T22:20:07.384Z,42.20
2022-10-24T22:22:35.076Z,52.72
2022-10-24T22:25:03.340Z,58.92
2022-10-24T22:27:31.073Z,54.53
2022-10-24T22:29:59.117Z,49.67
2022-10-24T22:35:00.859Z,38.92
2022-10-24T22:37:34.083Z,30.67
2022-10-24T22:40:02.223Z,32.95
